createdAt,value
2022-10-17T00:00:31.044Z,14.80
2022-10-17T00:03:18.549Z,14.60
2022-10-17T00:06:11.331Z,14.50
2022-10-17T00:08:58.729Z,14.50
2022-10-17T00:11:45.624Z,14.50
2022-10-17T00:14:33.038Z,14.60
2022-10-17T00:17:20.432Z,14.50
2022-10-17T00:20:08.566Z,14.30
2022-10-17T00:22:55.910Z,14.20
2022-10-17T00:25:43.542Z,14.30
2022-10-17T00:28:30.923Z,14.30
2022-10-17T00:31:19.915Z,14.30
2022-10-17T00:34:06.940Z,14.30
2022-10-17T00:36:54.315Z,14.30
2022-10-17T00:39:41.452Z,14.30
2022-10-17T00:42:29.274Z,14.30
2022-10-17T00:45:22.601Z,14.30
2022-10-17T00:48:11.920Z,14.30
2022-10-17T00:51:00.684Z,14.30
2022-10-17T00:53:48.217Z,14.40
2022-10-17T00:56:36.048Z,14.30
2022-10-17T00:59:24.179Z,14.30
2022-10-17T01:02:15.282Z,14.30
2022-10-17T01:05:03.273Z,14.20
2022-10-17T01:08:11.195Z,14.20
2022-10-17T01:11:13.100Z,14.20
2022-10-17T01:14:09.144Z,14.30
2022-10-17T01:17:16.112Z,14.30
2022-10-17T01:20:24.861Z,14.50
2022-10-17T01:23:49.734Z,14.60
2022-10-17T01:27:09.751Z,14.60
2022-10-17T01:30:34.835Z,14.60
2022-10-17T01:33:30.980Z,14.60
2022-10-17T01:36:43.757Z,14.60
2022-10-17T01:39:52.551Z,14.50
2022-10-17T01:42:48.504Z,14.40
2022-10-17T01:45:38.688Z,14.30
2022-10-17T01:48:28.910Z,14.30
2022-10-17T01:51:25.106Z,14.30
2022-10-17T01:54:18.128Z,14.20
2022-10-17T01:57:08.746Z,14.20
2022-10-17T01:59:57.660Z,14.10
2022-10-17T02:02:47.782Z,14.10
2022-10-17T02:05:38.248Z,14.10
2022-10-17T02:08:34.470Z,14.10
2022-10-17T02:11:27.669Z,14.10
2022-10-17T02:14:34.357Z,14.10
2022-10-17T02:17:36.770Z,14.20
2022-10-17T02:20:38.637Z,14.10
2022-10-17T02:23:38.076Z,14.00
2022-10-17T02:26:28.618Z,14.00
2022-10-17T02:29:21.665Z,14.00
2022-10-17T02:32:12.268Z,14.00
2022-10-17T02:35:03.077Z,13.90
2022-10-17T02:37:51.960Z,13.80
2022-10-17T02:40:41.539Z,13.80
2022-10-17T02:43:29.617Z,13.80
2022-10-17T02:46:22.426Z,13.90
2022-10-17T02:49:31.251Z,13.90
2022-10-17T02:52:42.495Z,14.00
2022-10-17T02:55:35.945Z,14.00
2022-10-17T02:58:26.185Z,14.00
2022-10-17T03:01:14.569Z,14.00
2022-10-17T03:04:14.067Z,14.00
2022-10-17T03:07:01.660Z,14.00
2022-10-17T03:09:49.044Z,14.00
2022-10-17T03:12:36.476Z,14.00
2022-10-17T03:15:23.679Z,14.00
2022-10-17T03:18:10.935Z,14.10
2022-10-17T03:20:58.209Z,14.00
2022-10-17T03:23:45.584Z,13.90
2022-10-17T03:26:33.048Z,13.90
2022-10-17T03:29:20.341Z,13.90
2022-10-17T03:32:08.548Z,13.80
2022-10-17T03:34:55.766Z,13.80
2022-10-17T03:37:42.986Z,13.80
2022-10-17T03:40:30.546Z,13.80
2022-10-17T03:43:17.704Z,13.80
2022-10-17T03:46:05.242Z,13.80
2022-10-17T03:48:52.536Z,13.70
2022-10-17T03:51:39.916Z,13.70
2022-10-17T03:54:27.132Z,13.70
2022-10-17T03:57:14.246Z,13.70
2022-10-17T04:00:01.570Z,13.70
2022-10-17T04:02:48.978Z,13.70
2022-10-17T04:05:36.338Z,13.70
2022-10-17T04:08:24.029Z,13.70
2022-10-17T04:11:14.611Z,13.80
2022-10-17T04:14:02.017Z,13.80
2022-10-17T04:16:49.140Z,13.80
2022-10-17T04:19:36.574Z,13.70
2022-10-17T04:22:23.775Z,13.70
2022-10-17T04:25:11.200Z,13.80
2022-10-17T04:27:58.332Z,13.80
2022-10-17T04:30:45.888Z,13.80
2022-10-17T04:33:34.123Z,13.80
2022-10-17T04:36:23.295Z,13.90
2022-10-17T04:39:11.630Z,14.00
2022-10-17T04:41:59.050Z,14.10
2022-10-17T04:44:46.390Z,14.20
2022-10-17T04:47:33.557Z,14.20
2022-10-17T04:50:21.013Z,14.20
2022-10-17T04:53:08.469Z,14.10
2022-10-17T04:55:56.087Z,14.00
2022-10-17T04:58:45.038Z,13.90
2022-10-17T05:01:32.536Z,13.90
2022-10-17T05:04:22.413Z,13.90
2022-10-17T05:07:08.802Z,13.70
2022-10-17T05:09:55.996Z,13.60
2022-10-17T05:12:43.291Z,13.60
2022-10-17T05:15:30.516Z,13.70
2022-10-17T05:18:17.852Z,13.70
2022-10-17T05:21:05.697Z,13.70
2022-10-17T05:23:53.790Z,13.70
2022-10-17T05:26:40.975Z,13.70
2022-10-17T05:29:28.220Z,13.60
2022-10-17T05:32:17.021Z,13.60
2022-10-17T05:35:04.628Z,13.60
2022-10-17T05:37:51.657Z,13.60
2022-10-17T05:40:39.326Z,13.50
2022-10-17T05:43:27.160Z,13.50
2022-10-17T05:46:14.020Z,13.50
2022-10-17T05:49:01.511Z,13.50
2022-10-17T05:51:49.127Z,13.40
2022-10-17T05:54:36.692Z,13.40
2022-10-17T05:57:26.367Z,13.40
2022-10-17T06:00:14.402Z,13.40
2022-10-17T06:03:01.884Z,13.40
2022-10-17T06:05:49.436Z,13.40
2022-10-17T06:08:36.916Z,13.40
2022-10-17T06:11:24.104Z,13.40
2022-10-17T06:14:11.467Z,13.40
2022-10-17T06:16:59.149Z,13.40
2022-10-17T06:19:46.420Z,13.30
2022-10-17T06:22:33.876Z,13.40
2022-10-17T06:25:21.229Z,13.50
2022-10-17T06:28:08.600Z,13.50
2022-10-17T06:30:56.364Z,13.60
2022-10-17T06:33:44.815Z,13.60
2022-10-17T06:36:32.208Z,13.70
2022-10-17T06:39:19.559Z,13.90
2022-10-17T06:42:07.009Z,14.00
2022-10-17T06:44:54.641Z,14.10
2022-10-17T06:47:41.987Z,14.20
2022-10-17T06:50:29.594Z,14.20
2022-10-17T06:53:17.022Z,14.20
2022-10-17T06:56:05.037Z,14.30
2022-10-17T06:58:53.084Z,14.40
2022-10-17T07:01:43.082Z,14.60
2022-10-17T07:04:29.475Z,14.80
2022-10-17T07:07:17.000Z,14.90
2022-10-17T07:10:06.209Z,15.10
2022-10-17T07:12:53.472Z,15.10
2022-10-17T07:15:41.012Z,15.20
2022-10-17T07:18:28.546Z,15.40
2022-10-17T07:21:16.065Z,15.60
2022-10-17T07:24:03.649Z,15.80
2022-10-17T07:26:51.033Z,16.00
2022-10-17T07:29:38.544Z,16.10
2022-10-17T07:32:25.984Z,16.40
2022-10-17T07:35:13.682Z,16.40
2022-10-17T07:38:01.080Z,16.50
2022-10-17T07:40:51.607Z,16.60
2022-10-17T07:43:39.106Z,16.70
2022-10-17T07:46:26.260Z,16.70
2022-10-17T07:49:13.916Z,16.80
2022-10-17T07:52:01.159Z,16.90
2022-10-17T07:54:48.361Z,16.90
2022-10-17T07:57:35.879Z,17.10
2022-10-17T08:00:23.389Z,17.30
2022-10-17T08:03:11.928Z,17.50
2022-10-17T08:06:03.237Z,17.70
2022-10-17T08:08:50.596Z,17.80
2022-10-17T08:11:38.095Z,17.80
2022-10-17T08:14:25.604Z,18.00
2022-10-17T08:17:12.943Z,18.20
2022-10-17T08:20:00.501Z,18.40
2022-10-17T08:22:53.458Z,18.40
2022-10-17T08:25:40.784Z,18.20
2022-10-17T08:28:28.508Z,18.20
2022-10-17T08:31:21.241Z,18.20
2022-10-17T08:34:08.506Z,18.20
2022-10-17T08:36:55.695Z,18.20
2022-10-17T08:39:43.837Z,18.30
2022-10-17T08:42:46.454Z,18.50
2022-10-17T08:45:43.163Z,18.60
2022-10-17T08:48:36.354Z,18.60
2022-10-17T08:51:29.622Z,18.80
2022-10-17T08:54:19.820Z,18.80
2022-10-17T08:57:29.150Z,19.10
2022-10-17T09:00:20.044Z,19.20
2022-10-17T09:03:32.068Z,19.40
2022-10-17T09:06:23.970Z,19.30
2022-10-17T09:09:34.087Z,19.30
2022-10-17T09:12:33.108Z,19.30
2022-10-17T09:15:27.532Z,19.60
2022-10-17T09:18:22.155Z,19.70
2022-10-17T09:21:21.436Z,19.80
2022-10-17T09:24:17.729Z,20.10
2022-10-17T09:27:06.579Z,20.10
2022-10-17T09:30:27.047Z,20.40
2022-10-17T09:33:34.765Z,20.50
2022-10-17T09:36:24.084Z,20.70
2022-10-17T09:39:20.474Z,21.00
2022-10-17T09:42:09.487Z,20.90
2022-10-17T09:45:05.255Z,21.00
2022-10-17T09:48:00.943Z,21.20
2022-10-17T09:50:57.810Z,21.20
2022-10-17T09:53:43.198Z,21.10
2022-10-17T09:56:30.535Z,21.40
2022-10-17T09:59:20.747Z,21.60
2022-10-17T10:02:22.939Z,21.90
2022-10-17T10:05:19.861Z,21.90
2022-10-17T10:08:18.517Z,22.00
2022-10-17T10:11:13.510Z,22.10
2022-10-17T10:14:00.424Z,22.10
2022-10-17T10:16:49.887Z,22.30
2022-10-17T10:19:39.102Z,22.30
2022-10-17T10:22:28.053Z,22.50
2022-10-17T10:25:18.920Z,22.60
2022-10-17T10:28:11.940Z,22.80
2022-10-17T10:31:02.429Z,22.80
2022-10-17T10:33:52.136Z,23.10
2022-10-17T10:36:47.886Z,23.40
2022-10-17T10:39:38.216Z,23.20
2022-10-17T10:42:28.803Z,23.60
2022-10-17T10:48:31.925Z,23.30
2022-10-17T10:51:24.517Z,23.20
2022-10-17T10:54:18.065Z,23.20
2022-10-17T10:57:08.575Z,23.50
2022-10-17T11:00:12.518Z,23.60
2022-10-17T11:03:03.906Z,23.60
2022-10-17T11:05:54.419Z,23.50
2022-10-17T11:08:53.665Z,23.20
2022-10-17T11:11:46.510Z,23.00
2022-10-17T11:14:39.128Z,23.20
2022-10-17T11:17:50.792Z,23.40
2022-10-17T11:20:47.056Z,23.10
2022-10-17T11:23:37.463Z,22.90
2022-10-17T11:26:31.557Z,22.90
2022-10-17T11:29:19.213Z,23.20
2022-10-17T11:32:12.564Z,23.40
2022-10-17T11:35:02.959Z,23.50
2022-10-17T11:37:59.099Z,23.40
2022-10-17T11:40:49.445Z,23.60
2022-10-17T11:43:48.773Z,24.00
2022-10-17T11:46:37.546Z,24.40
2022-10-17T11:52:44.305Z,24.90
2022-10-17T11:55:23.294Z,24.80
2022-10-17T11:58:39.677Z,24.70
2022-10-17T12:01:42.012Z,24.60
2022-10-17T12:04:56.566Z,24.50
2022-10-17T12:07:59.035Z,24.80
2022-10-17T12:11:07.781Z,25.10
2022-10-17T12:13:56.747Z,25.20
2022-10-17T12:16:45.699Z,25.20
2022-10-17T12:19:35.837Z,25.20
2022-10-17T12:22:27.155Z,25.00
2022-10-17T12:25:20.588Z,25.10
2022-10-17T12:28:36.522Z,25.20
2022-10-17T12:31:29.886Z,25.40
2022-10-17T12:34:18.889Z,25.40
2022-10-17T12:37:06.120Z,25.50
2022-10-17T12:39:53.392Z,25.50
2022-10-17T12:42:49.627Z,25.50
2022-10-17T12:45:53.999Z,25.30
2022-10-17T12:48:44.664Z,25.30
2022-10-17T12:51:41.546Z,25.00
2022-10-17T12:54:37.938Z,24.90
2022-10-17T12:57:30.297Z,24.90
2022-10-17T13:00:25.023Z,25.00
2022-10-17T13:03:25.878Z,24.90
2022-10-17T13:06:20.812Z,24.90
2022-10-17T13:09:23.841Z,24.90
2022-10-17T13:12:14.426Z,24.90
2022-10-17T13:15:11.889Z,24.70
2022-10-17T13:18:02.089Z,24.80
2022-10-17T13:21:05.536Z,24.80
2022-10-17T13:23:56.101Z,24.80
2022-10-17T13:26:49.691Z,25.00
2022-10-17T13:29:39.063Z,25.00
2022-10-17T13:32:29.333Z,25.10
2022-10-17T13:38:24.225Z,25.40
2022-10-17T13:44:06.886Z,25.50
2022-10-17T13:46:54.743Z,25.50
2022-10-17T13:49:44.271Z,25.50
2022-10-17T13:52:32.271Z,25.60
2022-10-17T13:55:21.708Z,25.60
2022-10-17T13:58:17.993Z,25.50
2022-10-17T14:01:05.821Z,25.40
2022-10-17T14:04:07.117Z,25.20
2022-10-17T14:06:47.580Z,25.30
2022-10-17T14:09:33.799Z,25.40
2022-10-17T14:12:23.183Z,25.40
2022-10-17T14:15:13.533Z,25.30
2022-10-17T14:18:07.750Z,25.50
2022-10-17T14:21:33.956Z,25.40
2022-10-17T14:23:45.178Z,25.30
2022-10-17T14:26:34.145Z,25.20
2022-10-17T14:29:33.598Z,25.10
2022-10-17T14:32:21.871Z,25.20
2022-10-17T14:35:30.689Z,25.10
2022-10-17T14:38:03.717Z,25.00
2022-10-17T14:41:00.372Z,24.90
2022-10-17T14:43:42.671Z,24.90
2022-10-17T14:46:30.367Z,25.00
2022-10-17T14:49:24.977Z,24.90
2022-10-17T14:52:17.712Z,25.00
2022-10-17T14:55:14.595Z,25.20
2022-10-17T14:58:02.764Z,25.00
2022-10-17T15:00:50.288Z,24.90
2022-10-17T15:03:37.540Z,24.80
2022-10-17T15:06:35.454Z,24.70
2022-10-17T15:09:23.786Z,24.60
2022-10-17T15:12:17.376Z,24.40
2022-10-17T15:15:04.728Z,24.20
2022-10-17T15:17:51.998Z,24.10
2022-10-17T15:20:40.037Z,24.20
2022-10-17T15:23:27.266Z,24.20
2022-10-17T15:26:27.093Z,24.20
2022-10-17T15:29:17.718Z,24.20
2022-10-17T15:32:05.043Z,24.30
2022-10-17T15:34:52.307Z,24.40
2022-10-17T15:37:39.629Z,24.40
2022-10-17T15:40:29.239Z,24.40
2022-10-17T15:43:19.788Z,24.40
2022-10-17T15:46:05.339Z,24.40
2022-10-17T15:48:53.847Z,24.40
2022-10-17T15:51:41.953Z,24.40
2022-10-17T15:54:29.220Z,24.40
2022-10-17T15:57:22.977Z,24.30
2022-10-17T16:00:31.451Z,24.00
2022-10-17T16:03:18.439Z,23.90
2022-10-17T16:06:08.534Z,23.80
2022-10-17T16:08:55.395Z,23.80
2022-10-17T16:11:44.994Z,23.60
2022-10-17T16:14:33.612Z,23.50
2022-10-17T16:17:20.922Z,23.30
2022-10-17T16:20:09.846Z,23.00
2022-10-17T16:22:58.858Z,22.80
2022-10-17T16:25:45.949Z,22.70
2022-10-17T16:28:33.389Z,22.40
2022-10-17T16:31:29.486Z,22.10
2022-10-17T16:34:17.179Z,22.00
2022-10-17T16:37:04.449Z,21.80
2022-10-17T16:39:53.538Z,21.70
2022-10-17T16:42:41.156Z,21.60
2022-10-17T16:45:28.575Z,21.50
2022-10-17T16:48:17.514Z,21.40
2022-10-17T16:51:04.685Z,21.30
2022-10-17T16:53:54.358Z,21.00
2022-10-17T16:56:42.153Z,20.90
2022-10-17T16:59:29.380Z,20.70
2022-10-17T17:02:18.953Z,20.50
2022-10-17T17:05:05.102Z,20.40
2022-10-17T17:07:52.627Z,20.30
2022-10-17T17:10:43.110Z,20.30
2022-10-17T17:13:30.471Z,20.20
2022-10-17T17:16:22.294Z,20.20
2022-10-17T17:19:13.163Z,20.10
2022-10-17T17:22:00.293Z,20.10
2022-10-17T17:27:34.892Z,20.10
2022-10-17T17:30:22.156Z,20.20
2022-10-17T17:33:09.246Z,20.20
2022-10-17T17:36:01.675Z,20.20
2022-10-17T17:38:50.771Z,20.30
2022-10-17T17:41:38.756Z,20.30
2022-10-17T17:44:25.910Z,20.30
2022-10-17T17:47:13.020Z,20.30
2022-10-17T17:50:00.428Z,20.30
2022-10-17T17:52:49.683Z,20.20
2022-10-17T17:55:37.576Z,20.20
2022-10-17T17:58:24.963Z,20.10
2022-10-17T18:01:17.579Z,20.10
2022-10-17T18:04:08.439Z,20.10
2022-10-17T18:06:55.852Z,20.00
2022-10-17T18:09:42.880Z,19.80
2022-10-17T18:12:30.892Z,19.70
2022-10-17T18:15:18.327Z,19.70
2022-10-17T18:18:05.828Z,19.60
2022-10-17T18:20:54.652Z,19.70
2022-10-17T18:23:44.877Z,19.70
2022-10-17T18:26:32.084Z,19.70
2022-10-17T18:29:20.295Z,19.60
2022-10-17T18:32:07.739Z,19.60
2022-10-17T18:34:55.031Z,19.60
2022-10-17T18:37:42.397Z,19.70
2022-10-17T18:40:29.910Z,19.80
2022-10-17T18:43:17.207Z,19.80
2022-10-17T18:46:08.597Z,19.70
2022-10-17T18:48:55.849Z,19.80
2022-10-17T18:51:43.672Z,19.80
2022-10-17T18:54:32.532Z,19.80
2022-10-17T18:57:21.516Z,19.80
2022-10-17T19:00:09.594Z,19.70
2022-10-17T19:02:56.780Z,19.70
2022-10-17T19:05:46.231Z,19.60
2022-10-17T19:08:34.028Z,19.50
2022-10-17T19:11:26.268Z,19.50
2022-10-17T19:14:14.382Z,19.50
2022-10-17T19:17:02.355Z,19.50
2022-10-17T19:19:51.614Z,19.40
2022-10-17T19:22:38.825Z,19.40
2022-10-17T19:25:26.390Z,19.40
2022-10-17T19:28:13.560Z,19.30
2022-10-17T19:31:01.174Z,19.20
2022-10-17T19:33:50.788Z,19.00
2022-10-17T19:36:38.077Z,18.90
2022-10-17T19:39:26.456Z,18.90
2022-10-17T19:42:13.818Z,18.90
2022-10-17T19:45:02.396Z,18.90
2022-10-17T19:47:49.480Z,18.80
2022-10-17T19:50:39.195Z,18.80
2022-10-17T19:53:27.958Z,18.90
2022-10-17T19:56:16.807Z,19.00
2022-10-17T19:59:04.411Z,19.00
2022-10-17T20:01:51.843Z,18.80
2022-10-17T20:04:49.560Z,18.80
2022-10-17T20:07:28.377Z,18.70
2022-10-17T20:10:15.778Z,18.70
2022-10-17T20:13:03.360Z,18.90
2022-10-17T20:15:58.084Z,19.00
2022-10-17T20:18:46.161Z,19.10
2022-10-17T20:21:38.988Z,19.20
2022-10-17T20:24:26.231Z,19.20
2022-10-17T20:27:13.475Z,19.30
2022-10-17T20:30:02.369Z,19.30
2022-10-17T20:32:54.774Z,19.20
2022-10-17T20:38:30.986Z,19.20
2022-10-17T20:41:18.251Z,19.10
2022-10-17T20:44:06.800Z,19.00
2022-10-17T20:47:01.586Z,19.20
2022-10-17T20:49:42.929Z,19.20
2022-10-17T20:52:30.518Z,19.20
2022-10-17T20:55:17.988Z,19.00
2022-10-17T20:58:05.433Z,19.00
2022-10-17T21:00:52.703Z,19.00
2022-10-17T21:03:43.890Z,19.10
2022-10-17T21:06:30.058Z,19.10
2022-10-17T21:09:17.644Z,19.20
2022-10-17T21:12:05.352Z,19.30
2022-10-17T21:14:52.839Z,19.20
2022-10-17T21:17:40.201Z,19.30
2022-10-17T21:20:27.856Z,19.20
2022-10-17T21:23:15.190Z,19.20
2022-10-17T21:26:04.010Z,19.10
2022-10-17T21:28:51.848Z,19.00
2022-10-17T21:31:40.702Z,19.10
2022-10-17T21:34:28.708Z,19.10
2022-10-17T21:37:16.667Z,19.20
2022-10-17T21:40:04.178Z,19.30
2022-10-17T21:42:51.645Z,19.40
2022-10-17T21:45:39.379Z,19.40
2022-10-17T21:48:27.329Z,19.50
2022-10-17T21:51:17.311Z,19.40
2022-10-17T21:54:05.986Z,19.50
2022-10-17T21:56:53.665Z,19.50
2022-10-17T21:59:41.211Z,19.60
2022-10-17T22:02:30.108Z,19.60
2022-10-17T22:05:17.175Z,19.60
2022-10-17T22:08:04.592Z,19.30
2022-10-17T22:10:51.741Z,19.10
2022-10-17T22:13:39.849Z,19.00
2022-10-17T22:16:27.701Z,18.90
2022-10-17T22:19:18.331Z,18.90
2022-10-17T22:22:05.612Z,19.00
2022-10-17T22:24:52.885Z,19.00
2022-10-17T22:27:40.187Z,19.20
2022-10-17T22:30:27.887Z,19.20
2022-10-17T22:33:15.583Z,19.10
2022-10-17T22:36:04.059Z,19.00
2022-10-17T22:38:51.798Z,19.00
2022-10-17T22:41:39.093Z,19.10
2022-10-17T22:44:26.194Z,19.20
2022-10-17T22:47:13.498Z,19.20
2022-10-17T22:50:01.020Z,19.30
2022-10-17T22:52:48.312Z,19.30
2022-10-17T22:55:35.808Z,19.30
2022-10-17T22:58:23.826Z,19.20
2022-10-17T23:01:16.828Z,19.20
2022-10-17T23:04:04.326Z,19.30
2022-10-17T23:06:51.515Z,19.30
2022-10-17T23:09:39.389Z,19.30
2022-10-17T23:12:26.675Z,19.30
2022-10-17T23:15:13.947Z,19.20
2022-10-17T23:18:02.262Z,19.20
2022-10-17T23:20:49.927Z,19.20
2022-10-17T23:23:37.689Z,19.10
2022-10-17T23:26:25.128Z,19.10
2022-10-17T23:29:12.381Z,19.20
2022-10-17T23:32:00.533Z,19.20
2022-10-17T23:34:47.898Z,19.10
2022-10-17T23:37:35.823Z,19.00
2022-10-17T23:40:23.230Z,19.00
2022-10-17T23:43:10.754Z,19.10
2022-10-17T23:45:58.638Z,19.20
2022-10-17T23:48:45.822Z,19.20
2022-10-17T23:51:33.482Z,19.30
2022-10-17T23:54:20.919Z,19.30
2022-10-17T23:57:08.219Z,19.40
2022-10-17T23:59:55.718Z,19.50
